createdAt,value
2022-12-09T00:03:05.809Z,65646.66
2022-12-09T00:08:09.940Z,65663.75
2022-12-09T00:13:15.742Z,65682.31
2022-12-09T00:18:19.965Z,65661.25
2022-12-09T00:23:24.280Z,65666.75
2022-12-09T00:28:29.724Z,65713.28
2022-12-09T00:33:34.583Z,65690.88
2022-12-09T00:38:39.715Z,65761.97
2022-12-09T00:43:45.876Z,65780.59
2022-12-09T00:48:49.982Z,65797.28
2022-12-09T00:53:55.957Z,65851.16
2022-12-09T00:59:01.816Z,65854.88
2022-12-09T01:04:08.764Z,65840.28
2022-12-09T01:09:14.098Z,65847.31
2022-12-09T01:14:19.488Z,65835.31
2022-12-09T01:19:23.514Z,65784.84
2022-12-09T01:24:28.146Z,65846.41
2022-12-09T01:29:33.525Z,65808.81
2022-12-09T01:34:37.695Z,65788.72
2022-12-09T01:39:42.104Z,65937.31
2022-12-09T01:45:19.177Z,65632.78
2022-12-09T01:50:26.628Z,65748.97
2022-12-09T01:55:31.717Z,65715.53
2022-12-09T02:00:35.892Z,65645.94
2022-12-09T02:05:42.711Z,65595.44
2022-12-09T02:10:58.022Z,65533.03
2022-12-09T02:16:06.797Z,65549.56
2022-12-09T02:21:17.636Z,65611.25
2022-12-09T02:26:27.458Z,65676.47
2022-12-09T02:31:54.375Z,65682.44
2022-12-09T02:37:09.988Z,65764.56
2022-12-09T02:42:18.693Z,65809.47
2022-12-09T02:47:29.067Z,65862.91
2022-12-09T02:52:37.131Z,65849.53
2022-12-09T02:57:42.379Z,65875.81
2022-12-09T03:02:52.645Z,65865.25
2022-12-09T03:08:08.308Z,65814.34
2022-12-09T03:13:17.118Z,65810.72
2022-12-09T03:18:23.026Z,65768.31
2022-12-09T03:23:30.400Z,65704.19
2022-12-09T03:28:41.445Z,65695.78
2022-12-09T03:33:48.136Z,65768.94
2022-12-09T03:38:55.638Z,65838.66
2022-12-09T03:44:04.776Z,65806.88
2022-12-09T03:49:09.795Z,65833.16
2022-12-09T03:54:21.600Z,65800.91
2022-12-09T03:59:28.817Z,65802.50
2022-12-09T04:04:33.164Z,65785.53
2022-12-09T04:09:39.028Z,65779.63
2022-12-09T04:14:43.597Z,65769.25
2022-12-09T04:19:47.500Z,65810.97
2022-12-09T04:24:53.051Z,65793.72
2022-12-09T04:29:56.994Z,65709.56
2022-12-09T04:35:00.970Z,65749.06
2022-12-09T04:40:07.846Z,65750.06
2022-12-09T04:45:12.676Z,65789.25
2022-12-09T04:50:17.122Z,65795.66
2022-12-09T04:55:22.612Z,65831.47
2022-12-09T05:00:26.887Z,65855.41
2022-12-09T05:05:31.430Z,65797.69
2022-12-09T05:10:37.087Z,65810.97
2022-12-09T05:15:41.582Z,65758.78
2022-12-09T05:20:45.644Z,65780.69
2022-12-09T05:25:51.224Z,65770.09
2022-12-09T05:31:01.024Z,65735.09
2022-12-09T05:36:05.675Z,65701.09
2022-12-09T05:41:12.006Z,65596.50
2022-12-09T05:46:16.755Z,65574.53
2022-12-09T05:51:25.316Z,65561.31
2022-12-09T05:56:31.089Z,65563.97
2022-12-09T06:01:35.382Z,65580.50
2022-12-09T06:06:39.767Z,65524.06
2022-12-09T06:11:45.538Z,65494.13
2022-12-09T06:16:49.543Z,65493.94
2022-12-09T06:21:53.927Z,65455.53
2022-12-09T06:26:59.601Z,65489.84
2022-12-09T06:32:04.747Z,65584.03
2022-12-09T06:37:08.815Z,65533.47
2022-12-09T06:42:15.000Z,65554.28
2022-12-09T06:47:19.254Z,65593.75
2022-12-09T06:52:23.460Z,65635.97
2022-12-09T06:57:28.894Z,65623.63
2022-12-09T07:02:36.654Z,65724.06
2022-12-09T07:07:41.848Z,65752.19
2022-12-09T07:12:48.262Z,65723.88
2022-12-09T07:17:52.167Z,65696.63
2022-12-09T07:22:57.430Z,65759.22
2022-12-09T07:28:03.090Z,65734.63
2022-12-09T07:33:07.185Z,65678.69
2022-12-09T07:38:11.522Z,65757.63
2022-12-09T07:43:16.852Z,65736.16
2022-12-09T07:48:20.965Z,65749.16
2022-12-09T07:53:24.971Z,65772.03
2022-12-09T07:58:31.101Z,65863.63
2022-12-09T08:03:35.168Z,65912.66
2022-12-09T08:08:40.907Z,65818.19
2022-12-09T08:13:46.913Z,65880.53
2022-12-09T08:18:51.796Z,65930.72
2022-12-09T08:23:56.859Z,65906.31
2022-12-09T08:29:02.774Z,65920.56
2022-12-09T08:34:07.190Z,65832.53
2022-12-09T08:39:12.343Z,65817.03
2022-12-09T08:44:19.625Z,65782.81
2022-12-09T08:49:25.155Z,65797.16
2022-12-09T08:54:30.122Z,65803.34
2022-12-09T08:59:39.983Z,65841.00
2022-12-09T09:04:48.516Z,65837.25
2022-12-09T09:09:53.029Z,65824.25
2022-12-09T09:14:59.238Z,65930.28
2022-12-09T09:20:03.373Z,65941.09
2022-12-09T09:25:08.627Z,65955.53
2022-12-09T09:30:15.842Z,65932.97
2022-12-09T09:35:20.127Z,65896.69
2022-12-09T09:40:25.053Z,65884.47
2022-12-09T09:45:30.790Z,65935.19
2022-12-09T09:50:41.790Z,65916.38
2022-12-09T09:55:50.430Z,65944.00
2022-12-09T10:01:00.928Z,66010.72
2022-12-09T10:06:13.872Z,65947.41
2022-12-09T10:11:22.462Z,65893.94
2022-12-09T10:16:38.022Z,65923.88
2022-12-09T10:21:45.394Z,65953.63
2022-12-09T10:26:58.581Z,65956.59
2022-12-09T10:32:04.460Z,65907.03
2022-12-09T10:37:20.463Z,65893.94
2022-12-09T10:42:44.810Z,65731.53
2022-12-09T10:47:53.967Z,65690.94
2022-12-09T10:53:00.511Z,65792.38
2022-12-09T10:58:20.435Z,65771.50
2022-12-09T11:03:31.521Z,65724.78
2022-12-09T11:08:36.353Z,65715.44
2022-12-09T11:13:44.325Z,65702.72
2022-12-09T11:18:50.607Z,65779.97
2022-12-09T11:24:02.511Z,65766.25
2022-12-09T11:29:17.759Z,65800.47
2022-12-09T11:34:27.452Z,65783.78
2022-12-09T11:39:41.557Z,65750.69
2022-12-09T11:44:53.873Z,65816.50
2022-12-09T11:50:07.996Z,65903.56
2022-12-09T11:55:17.359Z,65788.19
2022-12-09T12:00:25.185Z,65802.59
2022-12-09T12:05:35.609Z,65762.50
2022-12-09T12:10:43.655Z,65797.06
2022-12-09T12:16:00.683Z,65810.53
2022-12-09T12:21:42.897Z,65761.44
2022-12-09T12:26:55.870Z,65808.41
2022-12-09T12:32:25.519Z,65932.53
2022-12-09T12:37:45.771Z,65967.19
2022-12-09T12:43:21.277Z,65916.47
2022-12-09T12:48:34.176Z,65930.47
2022-12-09T12:53:46.968Z,66014.91
2022-12-09T12:59:03.883Z,65999.31
2022-12-09T13:04:20.960Z,66040.53
2022-12-09T13:09:35.391Z,65968.81
2022-12-09T13:14:53.599Z,66018.66
2022-12-09T13:20:02.261Z,66013.41
2022-12-09T13:25:18.417Z,66058.28
2022-12-09T13:30:23.742Z,66005.19
2022-12-09T13:35:35.838Z,65961.22
2022-12-09T13:40:41.191Z,65998.78
2022-12-09T13:45:52.270Z,65977.81
2022-12-09T13:50:59.699Z,65898.19
2022-12-09T13:56:08.050Z,65909.97
2022-12-09T14:01:23.174Z,65939.28
2022-12-09T14:06:32.337Z,65967.72
2022-12-09T14:11:49.226Z,65914.69
2022-12-09T14:16:54.358Z,65905.69
2022-12-09T14:22:31.458Z,65932.53
2022-12-09T14:27:36.875Z,65817.56
2022-12-09T14:32:55.204Z,65928.16
2022-12-09T14:38:11.285Z,65941.50
2022-12-09T14:43:32.642Z,65896.50
2022-12-09T14:48:41.649Z,65896.50
2022-12-09T14:53:49.508Z,65882.06
2022-12-09T14:58:57.504Z,65868.69
2022-12-09T15:04:03.049Z,65819.19
2022-12-09T15:09:07.133Z,65773.19
2022-12-09T15:14:25.217Z,65649.22
2022-12-09T15:24:57.154Z,65603.34
2022-12-09T15:30:01.648Z,65691.75
2022-12-09T15:35:26.451Z,65691.75
2022-12-09T15:40:34.538Z,65623.63
2022-12-09T15:45:44.347Z,65668.97
2022-12-09T15:50:54.277Z,65683.81
2022-12-09T15:56:01.917Z,65617.84
2022-12-09T16:01:06.131Z,65667.91
2022-12-09T16:06:11.677Z,65585.66
2022-12-09T16:11:35.117Z,65645.50
2022-12-09T16:16:43.996Z,65579.88
2022-12-09T16:21:54.947Z,65623.94
2022-12-09T16:27:00.171Z,65647.09
2022-12-09T16:32:23.811Z,65591.41
2022-12-09T16:37:42.254Z,65607.59
2022-12-09T16:42:46.275Z,65586.81
2022-12-09T16:47:54.593Z,65613.03
2022-12-09T16:53:01.637Z,65670.13
2022-12-09T16:58:05.943Z,65604.94
2022-12-09T17:03:17.127Z,65673.78
2022-12-09T17:08:22.745Z,65692.47
2022-12-09T17:13:26.613Z,65658.84
2022-12-09T17:18:30.901Z,65657.25
2022-12-09T17:23:39.946Z,65657.78
2022-12-09T17:28:45.993Z,65668.88
2022-12-09T17:33:50.315Z,65636.50
2022-12-09T17:38:55.851Z,65661.41
2022-12-09T17:44:02.032Z,65640.06
2022-12-09T17:49:06.021Z,65606.53
2022-12-09T17:54:11.478Z,65589.56
2022-12-09T17:59:17.635Z,65559.50
2022-12-09T18:04:21.597Z,65505.22
2022-12-09T18:09:27.055Z,65488.59
2022-12-09T18:14:31.258Z,65503.41
2022-12-09T18:19:35.538Z,65517.69
2022-12-09T18:24:42.187Z,65476.34
2022-12-09T18:29:46.558Z,65459.28
2022-12-09T18:34:51.115Z,65403.44
2022-12-09T18:40:00.986Z,65494.03
2022-12-09T18:45:05.575Z,65421.47
2022-12-09T18:50:10.577Z,65469.22
2022-12-09T18:55:16.134Z,65416.44
2022-12-09T19:00:20.589Z,65465.78
2022-12-09T19:05:24.498Z,65460.00
2022-12-09T19:10:29.846Z,65496.06
2022-12-09T19:15:33.880Z,65478.56
2022-12-09T19:20:38.039Z,65453.00
2022-12-09T19:25:43.463Z,65442.75
2022-12-09T19:30:49.926Z,65462.03
2022-12-09T19:35:54.832Z,65456.19
2022-12-09T19:41:02.736Z,65515.88
2022-12-09T19:46:08.877Z,65513.53
2022-12-09T19:51:15.795Z,65527.50
2022-12-09T19:56:21.764Z,65489.22
2022-12-09T20:01:28.037Z,65493.28
2022-12-09T20:06:32.538Z,65522.38
2022-12-09T20:11:38.385Z,65400.16
2022-12-09T20:16:42.946Z,65428.91
2022-12-09T20:21:47.260Z,65416.56
2022-12-09T20:26:52.788Z,65427.31
2022-12-09T20:31:57.155Z,65402.38
2022-12-09T20:37:02.941Z,65483.28
2022-12-09T20:42:08.585Z,65493.41
2022-12-09T20:47:12.860Z,65569.09
2022-12-09T20:52:16.842Z,65573.78
2022-12-09T20:57:22.215Z,65551.50
2022-12-09T21:02:26.186Z,65504.16
2022-12-09T21:07:45.090Z,65505.97
2022-12-09T21:12:50.450Z,65506.72
2022-12-09T21:17:55.216Z,65482.09
2022-12-09T21:23:25.117Z,65535.16
2022-12-09T21:28:24.466Z,65477.31
2022-12-09T21:33:28.469Z,65518.44
2022-12-09T21:38:32.565Z,65495.09
2022-12-09T21:43:39.059Z,65514.91
2022-12-09T21:48:43.384Z,65567.41
2022-12-09T21:53:47.871Z,65544.22
2022-12-09T21:58:55.206Z,65479.97
2022-12-09T22:04:00.656Z,65510.97
2022-12-09T22:09:07.087Z,65582.00
2022-12-09T22:14:12.509Z,65560.47
2022-12-09T22:19:18.350Z,65537.63
2022-12-09T22:24:22.336Z,65539.75
2022-12-09T22:29:34.160Z,65534.44
2022-12-09T22:34:40.887Z,65563.66
2022-12-09T22:39:47.641Z,65570.16
2022-12-09T22:44:53.049Z,65615.72
2022-12-09T22:49:57.311Z,65536.56
2022-12-09T22:55:08.488Z,65495.53
2022-12-09T23:00:14.666Z,65591.41
2022-12-09T23:05:18.915Z,65551.69
2022-12-09T23:10:22.849Z,65553.66
2022-12-09T23:15:28.234Z,65589.03
2022-12-09T23:20:32.415Z,65602.69
2022-12-09T23:25:36.626Z,65587.16
2022-12-09T23:30:41.997Z,65594.16
2022-12-09T23:35:45.865Z,65577.09
2022-12-09T23:40:53.466Z,65590.53
2022-12-09T23:46:01.156Z,65579.25
2022-12-09T23:51:10.862Z,65566.34
2022-12-09T23:56:16.987Z,65586.06
